Time;durP1;ratioP1;P1;durP2;ratioP2;P2;SDS_P1;SDS_P2;PMS_P1;PMS_P2;Temp;Humidity;BMP_temperature;BMP_pressure;BME280_temperature;BME280_humidity;BME280_pressure;Samples;Min_cycle;Max_cycle;Signal;HPM_P1;HPM_P2
2022/07/28 00:01:23;;;;;;;8.27;2.00;;;;;;;13.38;71.62;100101.06;4201826;28;20242;-62
2022/07/28 00:03:49;;;;;;;8.57;1.80;;;;;;;13.43;71.46;100104.03;4200365;28;20299;-62
2022/07/28 00:06:16;;;;;;;6.93;2.30;;;;;;;13.40;71.40;100101.72;4194909;28;20237;-63
2022/07/28 00:08:43;;;;;;;5.27;1.90;;;;;;;13.39;71.74;100102.72;4202299;28;20230;-64
2022/07/28 00:11:09;;;;;;;6.07;2.20;;;;;;;13.31;71.63;100105.41;4204643;28;20236;-63
2022/07/28 00:13:36;;;;;;;8.27;2.03;;;;;;;13.22;72.72;100103.72;4196191;28;20233;-63
2022/07/28 00:16:03;;;;;;;8.77;1.90;;;;;;;13.19;73.37;100106.75;4202990;28;20241;-62
2022/07/28 00:18:29;;;;;;;6.00;1.73;;;;;;;13.27;73.08;100112.06;4200073;28;20248;-64
2022/07/28 00:20:56;;;;;;;6.83;1.93;;;;;;;13.16;73.60;100105.25;4191523;28;21378;-62
2022/07/28 00:23:24;;;;;;;5.77;1.83;;;;;;;13.17;73.79;100114.94;4194080;28;20409;-62
2022/07/28 00:26:04;;;;;;;7.50;1.90;;;;;;;13.17;73.55;100111.44;4204359;28;20240;-64
2022/07/28 00:28:31;;;;;;;7.50;2.07;;;;;;;13.17;74.73;100111.44;4199700;28;20269;-66
2022/07/28 00:30:57;;;;;;;7.20;1.90;;;;;;;13.14;74.68;100106.44;4189162;28;20329;-63
2022/07/28 00:33:31;;;;;;;4.47;1.83;;;;;;;13.12;74.80;100113.78;4199096;28;20362;-61
2022/07/28 00:35:57;;;;;;;7.97;2.20;;;;;;;13.13;75.04;100110.09;4200134;28;20280;-62
2022/07/28 00:38:25;;;;;;;5.37;1.90;;;;;;;13.07;75.68;100112.44;4187975;28;20308;-62
2022/07/28 00:41:09;;;;;;;7.60;2.07;;;;;;;13.07;75.59;100112.44;4195842;28;20230;-63
2022/07/28 00:43:43;;;;;;;5.50;2.10;;;;;;;13.05;76.08;100110.94;4203410;28;21303;-65
2022/07/28 00:46:11;;;;;;;13.17;1.87;;;;;;;13.08;76.28;100113.28;4196423;28;20281;-61
2022/07/28 00:48:39;;;;;;;6.33;2.00;;;;;;;12.96;76.56;100115.44;4190471;28;21277;-63
2022/07/28 00:51:09;;;;;;;12.03;2.40;;;;;;;12.97;76.85;100111.78;4196072;28;20228;-63
2022/07/28 00:53:37;;;;;;;6.03;2.17;;;;;;;12.95;76.79;100110.31;4196353;28;23183;-62
2022/07/28 00:56:04;;;;;;;12.30;2.40;;;;;;;12.78;77.73;100115.66;4207487;28;21758;-63
2022/07/28 00:58:33;;;;;;;5.67;2.07;;;;;;;12.66;78.08;100112.44;4199465;28;20303;-63
2022/07/28 01:01:00;;;;;;;5.80;2.40;;;;;;;12.57;79.26;100109.94;4200034;28;20588;-63
2022/07/28 01:03:27;;;;;;;6.87;2.20;;;;;;;12.69;78.07;100116.66;4200233;28;20233;-63
2022/07/28 01:06:31;;;;;;;11.37;2.20;;;;;;;12.62;79.08;100118.31;4200901;28;20237;-62
2022/07/28 01:09:30;;;;;;;8.20;2.30;;;;;;;12.59;78.93;100118.63;4196497;28;22959;-65
2022/07/28 01:12:16;;;;;;;5.87;2.00;;;;;;;12.52;79.19;100115.78;4198039;28;20234;-61
2022/07/28 01:14:51;;;;;;;6.50;2.40;;;;;;;12.56;78.76;100125.13;4199659;28;21760;-62
2022/07/28 01:17:39;;;;;;;6.20;2.20;;;;;;;12.51;78.68;100119.47;4213701;28;21623;-63
2022/07/28 01:20:11;;;;;;;5.50;1.77;;;;;;;12.46;79.18;100124.47;4195858;28;20318;-62
2022/07/28 01:23:10;;;;;;;6.37;2.20;;;;;;;12.45;79.62;100120.13;4184980;28;22338;-65
2022/07/28 01:25:50;;;;;;;4.63;1.93;;;;;;;12.44;79.66;100121.13;4159961;28;22170;-62
2022/07/28 01:28:28;;;;;;;5.40;2.30;;;;;;;12.44;79.41;100124.63;4207197;28;20390;-64
2022/07/28 01:31:02;;;;;;;7.03;2.27;;;;;;;12.44;79.38;100115.78;4191527;28;20258;-61
2022/07/28 01:33:51;;;;;;;6.37;2.50;;;;;;;12.40;80.15;100119.78;4207205;28;21142;-62
2022/07/28 01:36:22;;;;;;;6.23;2.33;;;;;;;12.41;80.37;100121.47;4205733;28;20242;-64
2022/07/28 01:38:49;;;;;;;5.70;2.70;;;;;;;12.34;80.40;100117.75;4193939;28;20320;-62
2022/07/28 01:41:19;;;;;;;7.77;2.47;;;;;;;12.37;81.00;100114.78;4198009;28;23491;-62
2022/07/28 01:43:52;;;;;;;6.70;2.70;;;;;;;12.20;82.37;100119.25;4202002;28;20314;-61
2022/07/28 01:46:19;;;;;;;5.47;2.40;;;;;;;12.19;82.57;100117.56;4192457;28;20240;-62
2022/07/28 01:48:46;;;;;;;9.07;2.53;;;;;;;12.24;81.40;100116.09;4203107;28;20249;-62
2022/07/28 01:51:14;;;;;;;7.73;2.50;;;;;;;12.14;82.10;100119.91;4193972;28;21248;-61
2022/07/28 01:53:42;;;;;;;9.07;2.53;;;;;;;12.07;82.69;100111.72;4190943;28;20944;-62
2022/07/28 01:56:09;;;;;;;6.50;2.27;;;;;;;12.02;83.19;100114.84;4205642;28;21863;-62
2022/07/28 01:58:36;;;;;;;4.77;2.80;;;;;;;12.02;83.11;100119.38;4197636;28;20237;-62
2022/07/28 02:01:03;;;;;;;9.03;2.33;;;;;;;11.99;83.37;100114.38;4190764;28;20782;-61
2022/07/28 02:03:31;;;;;;;4.67;2.40;;;;;;;11.96;83.78;100120.84;4197912;28;20301;-62
2022/07/28 02:06:01;;;;;;;7.23;2.60;;;;;;;11.94;83.45;100117.50;4199289;28;20237;-63
2022/07/28 02:08:30;;;;;;;7.33;2.80;;;;;;;11.90;83.51;100128.66;4192687;28;20233;-61
2022/07/28 02:13:45;;;;;;;9.57;2.73;;;;;;;11.73;85.76;100128.56;4200503;28;20399;-61
2022/07/28 02:16:12;;;;;;;7.63;2.50;;;;;;;11.73;85.60;100131.22;4202877;28;20545;-63
2022/07/28 02:18:39;;;;;;;7.97;2.63;;;;;;;11.72;86.17;100126.06;4196680;28;21061;-62
2022/07/28 02:21:06;;;;;;;7.83;2.67;;;;;;;11.70;86.09;100125.38;4199691;28;21375;-63
2022/07/28 02:23:34;;;;;;;9.00;2.43;;;;;;;11.64;86.79;100124.19;4200580;28;20679;-62
2022/07/28 02:26:03;;;;;;;8.20;2.63;;;;;;;11.66;86.31;100126.69;4189164;28;20244;-63
2022/07/28 02:28:30;;;;;;;26.53;3.83;;;;;;;11.61;87.45;100129.81;4197868;28;20236;-63
2022/07/28 02:31:05;;;;;;;17.60;4.23;;;;;;;11.59;86.92;100130.00;4200607;28;20241;-63
2022/07/28 02:33:33;;;;;;;10.33;3.70;;;;;;;11.55;87.30;100127.81;4199306;28;20269;-64
2022/07/28 02:36:25;;;;;;;12.73;2.97;;;;;;;11.51;87.07;100129.13;4197882;28;20298;-63
2022/07/28 02:38:53;;;;;;;16.27;3.70;;;;;;;11.55;87.34;100138.47;4202008;28;21621;-62
2022/07/28 02:41:24;;;;;;;9.17;3.13;;;;;;;11.56;86.94;100129.47;4198921;28;20603;-63
2022/07/28 02:43:54;;;;;;;6.87;2.83;;;;;;;11.66;86.67;100135.53;4195181;28;20312;-65
2022/07/28 02:46:26;;;;;;;7.20;3.10;;;;;;;11.57;86.67;100128.50;4193137;28;20294;-63
2022/07/28 02:48:58;;;;;;;9.63;3.10;;;;;;;11.52;86.92;100125.44;4202872;28;20228;-64
2022/07/28 02:51:26;;;;;;;12.97;4.07;;;;;;;11.54;87.03;100128.78;4195409;28;20244;-63
2022/07/28 02:53:52;;;;;;;11.37;3.00;;;;;;;11.51;87.46;100134.44;4192275;28;20284;-63
2022/07/28 02:56:19;;;;;;;10.30;3.63;;;;;;;11.54;86.81;100142.97;4193206;28;20286;-62
2022/07/28 02:58:46;;;;;;;10.03;3.63;;;;;;;11.55;87.34;100146.47;4177044;28;21053;-63
2022/07/28 03:01:16;;;;;;;7.53;3.50;;;;;;;11.57;87.72;100149.81;4196351;28;20308;-64
2022/07/28 03:03:45;;;;;;;11.63;3.33;;;;;;;11.48;87.48;100154.25;4192543;28;20248;-64
2022/07/28 03:06:11;;;;;;;11.53;3.57;;;;;;;11.41;87.21;100151.38;4200129;28;21472;-64
2022/07/28 03:08:38;;;;;;;10.60;3.73;;;;;;;11.35;87.78;100152.00;4208423;28;20240;-63
2022/07/28 03:11:12;;;;;;;13.07;3.77;;;;;;;11.25;88.67;100156.59;4227487;28;20235;-65
2022/07/28 03:13:39;;;;;;;8.57;3.20;;;;;;;11.26;88.80;100147.63;4220113;28;26004;-64
2022/07/28 03:16:06;;;;;;;14.93;4.20;;;;;;;11.16;89.12;100145.03;4198039;28;25766;-63
2022/07/28 03:18:33;;;;;;;12.47;4.20;;;;;;;11.26;89.56;100155.63;4232085;28;20241;-63
2022/07/28 03:21:00;;;;;;;11.23;4.23;;;;;;;11.32;89.04;100157.63;4207947;28;20539;-63
2022/07/28 03:23:39;;;;;;;11.67;4.57;;;;;;;11.44;88.88;100155.56;4198548;28;20236;-63
2022/07/28 03:26:12;;;;;;;12.20;3.87;;;;;;;11.52;87.90;100163.59;4234754;28;20230;-64
2022/07/28 03:28:39;;;;;;;8.20;3.93;;;;;;;11.56;87.79;100161.44;4224594;28;20256;-63
2022/07/28 03:31:08;;;;;;;9.60;4.23;;;;;;;11.51;87.67;100161.91;4215501;28;20394;-63
2022/07/28 03:33:36;;;;;;;9.53;4.00;;;;;;;11.60;88.03;100166.31;4213743;28;22194;-65
2022/07/28 03:36:07;;;;;;;15.43;4.33;;;;;;;11.73;86.92;100176.56;4215094;28;21750;-63
2022/07/28 03:38:40;;;;;;;7.60;4.27;;;;;;;11.78;86.93;100178.75;4207857;28;22511;-62
2022/07/28 03:41:08;;;;;;;8.40;4.33;;;;;;;11.90;86.67;100179.31;4210411;28;20237;-63
2022/07/28 03:43:35;;;;;;;9.03;4.27;;;;;;;11.89;86.77;100181.13;4212426;28;21824;-63
2022/07/28 03:46:01;;;;;;;11.23;4.23;;;;;;;11.96;86.58;100182.19;4204082;28;24743;-62
2022/07/28 03:48:29;;;;;;;9.70;4.07;;;;;;;12.03;86.42;100187.69;4201031;28;20394;-62
2022/07/28 03:50:57;;;;;;;13.70;4.20;;;;;;;11.99;86.14;100187.19;4237128;28;20237;-65
2022/07/28 03:53:26;;;;;;;13.80;4.50;;;;;;;11.99;86.30;100192.53;4204619;28;23676;-66
2022/07/28 03:55:52;;;;;;;10.63;4.60;;;;;;;12.01;86.49;100195.88;4191834;28;20244;-64
2022/07/28 03:58:22;;;;;;;17.13;5.27;;;;;;;11.94;87.05;100199.31;4202011;28;20345;-63
2022/07/28 04:00:54;;;;;;;15.33;4.83;;;;;;;11.96;87.29;100200.00;4192191;28;20237;-64
2022/07/28 04:03:21;;;;;;;12.83;4.53;;;;;;;11.96;87.88;100197.34;4203157;28;20235;-62
2022/07/28 04:06:08;;;;;;;17.47;5.30;;;;;;;11.88;87.69;100205.31;4211757;28;20241;-63
2022/07/28 04:08:34;;;;;;;21.90;5.23;;;;;;;11.95;87.88;100196.50;4209806;28;23647;-64
2022/07/28 04:11:01;;;;;;;13.20;5.07;;;;;;;11.92;88.65;100204.00;4202748;28;23913;-63
2022/07/28 04:13:30;;;;;;;15.87;5.13;;;;;;;11.88;88.88;100199.97;4196506;28;22862;-64
2022/07/28 04:15:58;;;;;;;12.10;5.20;;;;;;;11.94;87.42;100205.50;4211270;28;20588;-65
2022/07/28 04:18:24;;;;;;;16.23;4.97;;;;;;;11.92;87.88;100204.00;4201496;28;20280;-65
2022/07/28 04:20:51;;;;;;;10.47;5.63;;;;;;;11.90;87.93;100206.81;4207008;28;20237;-62
2022/07/28 04:23:19;;;;;;;15.10;5.40;;;;;;;12.03;86.81;100209.03;4219482;28;20234;-65
2022/07/28 04:25:46;;;;;;;12.97;5.60;;;;;;;12.07;86.33;100213.06;4212368;28;20613;-64
2022/07/28 04:28:13;;;;;;;12.17;5.20;;;;;;;12.19;85.96;100211.75;4199334;28;20233;-64
2022/07/28 04:30:39;;;;;;;14.73;5.53;;;;;;;12.28;86.08;100217.16;4200962;28;20237;-63
2022/07/28 04:33:09;;;;;;;15.83;6.13;;;;;;;12.28;86.52;100211.81;4217770;28;20354;-64
2022/07/28 04:35:36;;;;;;;13.37;5.30;;;;;;;12.45;85.73;100225.06;4198448;28;20243;-65
2022/07/28 04:38:03;;;;;;;13.97;5.57;;;;;;;12.61;84.85;100224.22;4201098;28;20557;-61
2022/07/28 04:40:29;;;;;;;16.13;5.60;;;;;;;12.75;84.36;100224.59;4200563;28;20241;-62
2022/07/28 04:42:56;;;;;;;12.17;5.83;;;;;;;12.97;82.33;100225.78;4201171;28;20241;-65
2022/07/28 04:45:23;;;;;;;14.50;5.53;;;;;;;13.04;81.53;100224.97;4196419;28;21412;-61
2022/07/28 04:47:50;;;;;;;10.97;5.20;;;;;;;13.20;80.89;100234.00;4202747;28;23732;-62
2022/07/28 04:50:19;;;;;;;13.90;6.07;;;;;;;13.39;79.74;100228.34;4202072;28;20268;-62
2022/07/28 04:52:48;;;;;;;11.07;5.40;;;;;;;13.40;79.72;100221.16;4175786;28;20240;-62
2022/07/28 04:55:15;;;;;;;12.83;5.50;;;;;;;13.50;80.26;100216.47;4204041;28;21997;-64
2022/07/28 04:57:42;;;;;;;12.73;5.70;;;;;;;13.54;80.24;100219.66;4211086;28;20612;-62
2022/07/28 05:00:13;;;;;;;17.40;5.90;;;;;;;13.60;80.33;100214.47;4200359;28;20630;-64
2022/07/28 05:02:41;;;;;;;12.77;5.80;;;;;;;13.57;81.55;100221.97;4216463;28;20236;-63
2022/07/28 05:05:09;;;;;;;17.27;5.73;;;;;;;13.59;81.37;100218.13;4194917;28;20245;-62
2022/07/28 05:07:36;;;;;;;8.83;5.67;;;;;;;13.67;81.56;100222.59;4197355;28;20406;-61
2022/07/28 05:10:05;;;;;;;18.23;5.80;;;;;;;13.88;81.24;100233.63;4198207;28;20576;-62
2022/07/28 05:12:31;;;;;;;11.97;5.67;;;;;;;14.03;80.87;100227.53;4198454;28;20613;-64
2022/07/28 05:14:58;;;;;;;14.33;5.47;;;;;;;14.00;81.00;100227.88;4205185;28;20641;-61
2022/07/28 05:17:26;;;;;;;21.60;6.03;;;;;;;14.15;81.24;100229.66;4190725;28;20348;-61
2022/07/28 05:19:52;;;;;;;16.00;5.40;;;;;;;14.23;81.23;100234.13;4198696;28;20237;-62
2022/07/28 05:22:19;;;;;;;15.07;6.10;;;;;;;14.19;80.85;100232.84;4203538;28;20757;-61
2022/07/28 05:24:46;;;;;;;12.27;5.30;;;;;;;14.25;81.26;100234.81;4193085;28;20535;-61
2022/07/28 05:27:12;;;;;;;9.67;5.13;;;;;;;14.49;80.61;100241.91;4198533;28;20233;-61
2022/07/28 05:29:40;;;;;;;19.37;5.53;;;;;;;14.58;80.29;100242.72;4207901;28;20405;-64
2022/07/28 05:32:13;;;;;;;13.20;5.23;;;;;;;14.68;80.61;100246.00;4194793;28;20233;-63
2022/07/28 05:34:46;;;;;;;13.10;5.63;;;;;;;14.70;79.51;100241.31;4196397;28;20287;-62
2022/07/28 05:37:12;;;;;;;12.67;4.97;;;;;;;14.95;78.18;100254.53;4199509;28;20237;-63
2022/07/28 05:39:39;;;;;;;15.27;5.57;;;;;;;15.20;77.10;100250.66;4203878;28;20240;-63
2022/07/28 05:42:05;;;;;;;16.10;5.77;;;;;;;15.40;76.43;100251.03;4192919;28;20249;-63
2022/07/28 05:44:32;;;;;;;10.23;4.97;;;;;;;15.65;76.79;100252.63;4207859;28;22379;-64
2022/07/28 05:47:03;;;;;;;16.87;6.80;;;;;;;15.85;76.05;100253.81;4205703;28;20238;-62
2022/07/28 05:49:30;;;;;;;11.73;5.40;;;;;;;16.20;75.57;100256.75;4198382;28;25295;-61
2022/07/28 05:51:57;;;;;;;12.90;4.60;;;;;;;17.01;70.98;100264.78;4196169;28;21429;-63
2022/07/28 05:54:23;;;;;;;8.87;4.80;;;;;;;17.51;68.91;100269.19;4211049;28;20233;-64
2022/07/28 05:56:51;;;;;;;10.57;4.60;;;;;;;18.64;64.74;100287.09;4207248;28;20238;-65
2022/07/28 05:59:17;;;;;;;9.53;3.90;;;;;;;19.84;59.67;100290.84;4202988;28;20244;-62
2022/07/28 06:01:47;;;;;;;9.23;4.00;;;;;;;20.56;54.94;100297.16;4214223;28;20353;-63
2022/07/28 06:04:13;;;;;;;16.83;6.10;;;;;;;20.80;52.28;100292.06;4211544;28;21850;-61
2022/07/28 06:06:56;;;;;;;11.70;3.60;;;;;;;21.61;49.96;100294.03;4196649;28;20920;-62
2022/07/28 06:09:23;;;;;;;8.97;3.20;;;;;;;22.60;46.08;100302.22;4199772;28;20548;-63
2022/07/28 06:11:50;;;;;;;16.90;3.17;;;;;;;23.84;40.73;100318.00;4203873;28;20504;-60
2022/07/28 06:14:17;;;;;;;10.63;3.13;;;;;;;24.53;39.73;100317.38;4203929;28;20850;-62
2022/07/28 06:16:49;;;;;;;10.17;3.17;;;;;;;24.85;38.78;100323.22;4215384;28;20251;-63
2022/07/28 06:19:17;;;;;;;17.23;3.10;;;;;;;25.28;37.16;100324.59;4230327;28;20275;-61
2022/07/28 06:21:43;;;;;;;6.30;3.00;;;;;;;25.96;35.62;100335.56;4196915;28;20237;-64
2022/07/28 06:24:10;;;;;;;5.80;2.50;;;;;;;26.52;33.29;100337.16;4202158;28;20430;-63
2022/07/28 06:26:38;;;;;;;7.23;2.43;;;;;;;27.08;31.85;100344.41;4202145;28;20245;-63
2022/07/28 06:29:10;;;;;;;10.87;2.80;;;;;;;27.14;30.75;100343.41;4206338;28;20259;-62
2022/07/28 06:31:37;;;;;;;9.77;2.47;;;;;;;26.77;31.86;100335.06;4236515;28;22645;-63
2022/07/28 06:34:04;;;;;;;8.53;2.37;;;;;;;28.55;29.33;100349.47;4204509;28;20237;-63
2022/07/28 06:36:31;;;;;;;5.17;1.67;;;;;;;28.70;27.52;100345.16;4209114;28;20927;-63
2022/07/28 06:38:58;;;;;;;10.13;2.10;;;;;;;28.94;27.28;100354.56;4192068;28;20739;-63
2022/07/28 06:41:24;;;;;;;4.87;2.20;;;;;;;28.84;28.00;100357.25;4210262;28;20295;-65
2022/07/28 06:43:51;;;;;;;4.83;1.80;;;;;;;29.13;27.64;100354.09;4203120;28;20273;-64
2022/07/28 06:46:18;;;;;;;8.07;1.70;;;;;;;28.63;26.53;100353.59;4189133;28;20237;-64
2022/07/28 06:48:45;;;;;;;6.07;1.67;;;;;;;28.20;26.67;100361.84;4197932;28;20248;-44
2022/07/28 06:51:13;;;;;;;4.63;1.70;;;;;;;28.02;26.79;100359.53;4195412;28;20560;-45
2022/07/28 06:53:40;;;;;;;3.40;1.53;;;;;;;28.47;25.67;100360.94;4200855;28;20237;-42
2022/07/28 06:56:07;;;;;;;6.60;1.77;;;;;;;27.78;26.58;100354.38;4197014;28;20431;-42
2022/07/28 06:58:39;;;;;;;5.77;1.77;;;;;;;27.96;26.13;100355.13;4196779;28;22689;-42
2022/07/28 07:01:09;;;;;;;3.60;1.50;;;;;;;27.84;26.48;100359.94;4197489;28;20250;-50
2022/07/28 07:03:35;;;;;;;6.90;1.60;;;;;;;27.19;28.34;100351.63;4173616;28;20245;-42
2022/07/28 07:06:05;;;;;;;4.80;1.80;;;;;;;27.67;27.59;100351.84;4197298;28;20235;-45
2022/07/28 07:08:32;;;;;;;10.70;2.00;;;;;;;27.80;27.07;100356.88;4207845;28;20240;-67
2022/07/28 07:10:58;;;;;;;4.77;1.50;;;;;;;29.08;25.63;100365.03;4210238;28;20240;-63
2022/07/28 07:13:25;;;;;;;7.73;2.00;;;;;;;28.91;25.32;100371.50;4199101;28;20523;-64
2022/07/28 07:15:52;;;;;;;7.40;1.53;;;;;;;28.96;25.82;100373.44;4210145;28;20234;-62
2022/07/28 07:18:18;;;;;;;5.00;1.90;;;;;;;28.66;25.84;100372.25;4201222;28;22072;-63
2022/07/28 07:20:45;;;;;;;4.93;1.83;;;;;;;28.53;25.59;100367.25;4204679;28;20232;-64
2022/07/28 07:23:13;;;;;;;6.57;1.60;;;;;;;28.85;25.75;100371.78;4253395;28;21128;-64
2022/07/28 07:25:40;;;;;;;4.80;1.40;;;;;;;29.02;25.44;100377.88;4213330;28;21123;-64
2022/07/28 07:28:06;;;;;;;6.35;1.60;;;;;;;28.45;26.34;100367.72;4210177;28;21730;-63
2022/07/28 07:30:33;;;;;;;7.27;1.70;;;;;;;28.92;26.08;100372.38;4201061;28;20753;-63
2022/07/28 07:33:00;;;;;;;4.67;1.60;;;;;;;29.06;26.55;100368.03;4224274;28;20234;-64
2022/07/28 07:35:26;;;;;;;6.10;1.93;;;;;;;29.33;25.00;100373.31;4208755;28;20680;-64
2022/07/28 07:37:54;;;;;;;7.20;1.90;;;;;;;28.09;27.17;100362.84;4198237;28;22651;-65
2022/07/28 07:40:21;;;;;;;7.33;1.73;;;;;;;27.77;27.52;100352.75;4210338;28;20276;-42
2022/07/28 07:42:48;;;;;;;4.63;1.70;;;;;;;27.02;28.50;100359.09;4217114;28;21358;-68
2022/07/28 07:45:14;;;;;;;5.00;1.50;;;;;;;25.58;30.91;100342.56;4206372;28;20244;-63
2022/07/28 07:47:41;;;;;;;5.67;1.60;;;;;;;25.00;32.66;100336.28;4202974;28;22003;-63
2022/07/28 07:50:08;;;;;;;10.00;2.43;;;;;;;24.53;33.13;100339.16;4207881;28;20635;-64
2022/07/28 07:52:35;;;;;;;7.20;1.80;;;;;;;24.19;34.28;100336.22;4211340;28;20354;-64
2022/07/28 07:55:02;;;;;;;5.77;1.97;;;;;;;23.58;35.47;100336.38;4194503;28;20544;-61
2022/07/28 07:57:30;;;;;;;7.63;2.20;;;;;;;24.04;35.19;100335.84;4209510;28;20626;-62
2022/07/28 07:59:56;;;;;;;5.90;1.80;;;;;;;23.82;35.37;100338.34;4221364;28;20317;-62
2022/07/28 08:02:23;;;;;;;7.83;2.47;;;;;;;23.30;35.91;100333.47;4201885;28;20298;-62
2022/07/28 08:04:49;;;;;;;6.53;1.87;;;;;;;23.08;36.59;100320.41;4229738;28;20231;-63
2022/07/28 08:07:16;;;;;;;5.80;1.80;;;;;;;22.94;37.72;100329.75;4234329;28;20260;-63
2022/07/28 08:09:47;;;;;;;5.87;1.93;;;;;;;22.96;37.26;100333.06;4239561;28;21194;-64
2022/07/28 08:12:14;;;;;;;6.07;1.77;;;;;;;22.47;38.83;100321.38;4217430;28;21182;-61
2022/07/28 08:14:40;;;;;;;6.57;1.90;;;;;;;22.85;37.11;100325.69;4214509;28;21186;-63
2022/07/28 08:17:13;;;;;;;5.23;1.70;;;;;;;22.88;37.25;100330.69;4246015;28;20349;-62
2022/07/28 08:19:40;;;;;;;6.13;1.63;;;;;;;22.95;37.58;100334.97;4211775;28;20229;-64
2022/07/28 08:22:06;;;;;;;7.33;1.70;;;;;;;23.01;38.00;100335.94;4219544;28;20232;-63
2022/07/28 08:24:33;;;;;;;4.80;1.80;;;;;;;23.34;37.49;100334.66;4204962;28;21213;-65
2022/07/28 08:27:03;;;;;;;4.90;1.70;;;;;;;22.95;37.82;100326.00;4195470;28;20251;-64
2022/07/28 08:29:30;;;;;;;4.53;1.90;;;;;;;22.54;37.81;100333.78;4224575;28;20240;-64
2022/07/28 08:31:57;;;;;;;8.17;1.80;;;;;;;22.16;38.31;100327.72;4194121;28;21535;-66
2022/07/28 08:34:24;;;;;;;6.73;1.60;;;;;;;22.26;38.94;100323.44;4219162;28;20916;-63
2022/07/28 08:37:03;;;;;;;6.53;1.90;;;;;;;22.07;39.57;100328.00;4207964;28;20317;-65
2022/07/28 08:39:31;;;;;;;7.40;1.80;;;;;;;22.45;38.77;100334.31;4202501;28;20321;-64
2022/07/28 08:42:10;;;;;;;5.10;1.63;;;;;;;22.77;38.96;100314.09;4206042;28;20233;-62
2022/07/28 08:44:44;;;;;;;6.83;1.83;;;;;;;22.40;38.94;100324.16;4212283;28;23614;-63
2022/07/28 08:47:12;;;;;;;5.47;1.63;;;;;;;22.23;38.86;100318.50;4206533;28;20240;-62
2022/07/28 08:49:43;;;;;;;4.07;1.90;;;;;;;22.13;39.14;100324.41;4217013;28;23719;-63
2022/07/28 08:52:11;;;;;;;4.40;1.60;;;;;;;22.51;38.39;100319.88;4214443;28;20300;-62
2022/07/28 08:54:44;;;;;;;5.63;1.60;;;;;;;22.61;38.51;100320.16;4202834;28;20284;-64
2022/07/28 08:57:31;;;;;;;8.07;1.73;;;;;;;22.68;37.19;100318.19;4220099;28;21151;-65
2022/07/28 08:59:58;;;;;;;4.97;1.80;;;;;;;22.62;37.81;100338.09;4157727;28;1259700;-65
2022/07/28 09:02:25;;;;;;;5.53;1.40;;;;;;;22.15;38.78;100329.59;4216473;28;20245;-65
2022/07/28 09:04:54;;;;;;;4.47;1.40;;;;;;;22.05;38.60;100321.16;4217344;28;20314;-64
2022/07/28 09:07:25;;;;;;;6.03;1.90;;;;;;;21.88;40.47;100324.41;4204115;28;20406;-65
2022/07/28 09:09:52;;;;;;;7.00;1.43;;;;;;;22.01;40.69;100328.06;4204761;28;20947;-67
2022/07/28 09:12:27;;;;;;;5.93;1.37;;;;;;;21.76;39.05;100328.09;4207785;28;20555;-63
2022/07/28 09:14:54;;;;;;;11.93;1.77;;;;;;;21.83;40.14;100328.84;4215729;28;20816;-66
2022/07/28 09:17:21;;;;;;;6.20;1.80;;;;;;;21.85;40.75;100335.72;4208503;28;20341;-60
2022/07/28 09:19:47;;;;;;;4.67;1.40;;;;;;;22.31;38.86;100339.91;4223252;28;20523;-66
2022/07/28 09:22:14;;;;;;;5.17;1.30;;;;;;;22.47;38.11;100340.34;4201667;28;20249;-64
2022/07/28 09:24:43;;;;;;;6.53;1.37;;;;;;;22.16;39.41;100333.97;4204716;28;22760;-65
2022/07/28 09:27:12;;;;;;;6.73;1.40;;;;;;;22.47;39.08;100337.63;4211524;28;21164;-66
2022/07/28 09:29:40;;;;;;;5.53;1.47;;;;;;;22.43;39.33;100337.28;4210648;28;20279;-63
2022/07/28 09:32:07;;;;;;;4.37;1.63;;;;;;;22.38;38.71;100331.66;4216514;28;20448;-63
2022/07/28 09:34:39;;;;;;;6.60;1.30;;;;;;;22.00;38.85;100334.53;4194161;28;20292;-66
2022/07/28 09:37:15;;;;;;;5.00;1.20;;;;;;;21.64;38.96;100327.97;4211450;28;20311;-64
2022/07/28 09:39:45;;;;;;;4.20;1.53;;;;;;;21.97;37.91;100335.00;4199894;28;21472;-65
2022/07/28 09:42:12;;;;;;;4.53;1.47;;;;;;;21.89;39.27;100319.81;4198283;28;20263;-64
2022/07/28 09:44:40;;;;;;;7.73;1.30;;;;;;;21.83;38.92;100326.97;4196555;28;21264;-62
2022/07/28 09:47:31;;;;;;;6.30;1.20;;;;;;;21.77;39.40;100318.91;4203498;28;20860;-62
2022/07/28 09:49:58;;;;;;;2.80;1.40;;;;;;;21.63;40.10;100319.03;4201693;28;20559;-67
2022/07/28 09:52:30;;;;;;;5.43;1.30;;;;;;;21.83;39.35;100324.25;4197524;28;20352;-63
2022/07/28 09:55:07;;;;;;;5.90;1.27;;;;;;;21.78;39.66;100324.09;4203289;28;20231;-64
2022/07/28 09:57:36;;;;;;;3.57;1.37;;;;;;;21.53;39.53;100323.28;4200053;28;20525;-63
2022/07/28 10:00:10;;;;;;;5.30;1.20;;;;;;;21.70;40.36;100333.34;4205630;28;20377;-66
2022/07/28 10:02:37;;;;;;;5.97;1.50;;;;;;;21.81;40.52;100329.06;4207894;28;20241;-64
2022/07/28 10:05:05;;;;;;;4.30;1.17;;;;;;;21.70;40.08;100327.94;4199039;28;20238;-64
2022/07/28 10:07:33;;;;;;;3.60;1.13;;;;;;;21.93;39.64;100324.56;4197660;28;21116;-62
2022/07/28 10:10:03;;;;;;;4.60;1.23;;;;;;;21.93;39.08;100335.41;4203750;28;26336;-61
2022/07/28 10:12:34;;;;;;;5.20;1.40;;;;;;;21.63;39.95;100329.00;4201801;28;20227;-62
2022/07/28 10:18:13;;;;;;;2.60;1.23;;;;;;;21.80;39.09;100330.13;4213913;28;20237;-62
2022/07/28 10:20:40;;;;;;;3.20;1.20;;;;;;;21.59;39.09;100322.41;4202680;28;20619;-65
2022/07/28 10:23:10;;;;;;;5.77;1.70;;;;;;;21.60;39.84;100330.28;4203904;28;20638;-65
2022/07/28 10:25:39;;;;;;;4.07;1.30;;;;;;;21.71;39.93;100321.44;4192882;28;20288;-63
2022/07/28 10:28:07;;;;;;;5.90;1.50;;;;;;;21.87;38.98;100324.66;4195348;28;20644;-63
2022/07/28 10:30:39;;;;;;;9.33;1.30;;;;;;;21.73;39.29;100313.13;4184748;28;21104;-64
2022/07/28 10:33:13;;;;;;;4.23;1.30;;;;;;;21.71;39.66;100312.50;4192598;28;20242;-63
2022/07/28 10:35:40;;;;;;;3.00;1.10;;;;;;;21.67;39.40;100311.28;4187825;28;20319;-63
2022/07/28 10:38:21;;;;;;;2.57;1.00;;;;;;;21.90;39.64;100321.50;4199542;28;20240;-64
2022/07/28 10:40:49;;;;;;;4.10;1.10;;;;;;;21.99;40.10;100313.94;4202826;28;20303;-65
2022/07/28 10:43:15;;;;;;;4.03;1.40;;;;;;;21.99;39.55;100319.34;4206925;28;20239;-63
2022/07/28 10:45:42;;;;;;;4.93;1.37;;;;;;;22.00;40.13;100312.88;4184804;28;22382;-63
2022/07/28 10:48:29;;;;;;;4.67;1.40;;;;;;;21.79;39.95;100311.38;4208925;28;20322;-64
2022/07/28 10:50:56;;;;;;;4.33;1.20;;;;;;;21.66;40.52;100312.34;4201058;28;20240;-63
2022/07/28 10:53:37;;;;;;;5.27;0.80;;;;;;;21.91;40.42;100305.03;4204709;28;20237;-63
2022/07/28 10:56:12;;;;;;;8.37;1.40;;;;;;;22.13;39.70;100310.03;4219873;28;20612;-64
2022/07/28 10:58:46;;;;;;;6.30;1.10;;;;;;;22.28;40.24;100315.94;4231708;28;20236;-63
2022/07/28 11:01:32;;;;;;;12.67;1.70;;;;;;;22.19;40.24;100317.25;4207818;28;21190;-63
2022/07/28 11:04:39;;;;;;;6.10;1.20;;;;;;;22.10;39.41;100310.47;4228540;28;20232;-62
2022/07/28 11:07:15;;;;;;;3.27;1.20;;;;;;;22.21;39.26;100311.63;4239904;28;21173;-62
2022/07/28 11:09:43;;;;;;;5.67;1.20;;;;;;;22.45;40.31;100315.34;4214049;28;20233;-65
2022/07/28 11:12:16;;;;;;;5.17;1.00;;;;;;;22.74;40.81;100308.31;4216184;28;20235;-63
2022/07/28 11:14:43;;;;;;;3.53;1.07;;;;;;;22.79;39.01;100310.34;4225990;28;20242;-64
2022/07/28 11:17:14;;;;;;;5.67;1.20;;;;;;;22.88;38.86;100307.09;4218158;28;20621;-66
2022/07/28 11:19:44;;;;;;;3.07;1.27;;;;;;;22.76;37.00;100315.16;4217712;28;20873;-65
2022/07/28 11:22:32;;;;;;;4.30;1.60;;;;;;;22.80;39.20;100315.53;4213986;28;21779;-62
2022/07/28 11:25:00;;;;;;;5.07;1.13;;;;;;;23.00;38.78;100312.59;4219451;28;20305;-63
2022/07/28 11:27:48;;;;;;;6.10;1.70;;;;;;;22.88;36.68;100309.81;4236741;28;23085;-61
2022/07/28 11:30:18;;;;;;;3.13;0.97;;;;;;;22.70;36.98;100307.94;4190314;28;21077;-65
2022/07/28 11:32:52;;;;;;;3.73;1.03;;;;;;;22.76;36.50;100307.03;4204996;28;20248;-63
2022/07/28 11:35:25;;;;;;;4.57;1.10;;;;;;;22.77;37.18;100308.69;4231332;28;20231;-43
2022/07/28 11:38:00;;;;;;;4.53;1.20;;;;;;;22.60;38.98;100304.94;4196806;28;20268;-44
2022/07/28 11:40:31;;;;;;;6.50;1.50;;;;;;;22.68;38.29;100304.63;4208004;28;20227;-43